Time;durP1;ratioP1;P1;durP2;ratioP2;P2;SDS_P1;SDS_P2;PMS_P1;PMS_P2;Temp;Humidity;BMP_temperature;BMP_pressure;BME280_temperature;BME280_humidity;BME280_pressure;Samples;Min_cycle;Max_cycle;Signal;HPM_P1;HPM_P2
2022/01/02 00:01:44;;;;;;;10.98;6.50;;;11.80;99.90;;;;;;5033539;28;20075;-71
2022/01/02 00:04:18;;;;;;;12.30;7.43;;;11.70;99.90;;;;;;5029418;28;20050;-71
2022/01/02 00:06:52;;;;;;;18.02;7.50;;;11.70;99.90;;;;;;5030196;28;20041;-71
2022/01/02 00:09:31;;;;;;;10.50;6.90;;;11.80;99.90;;;;;;5028420;28;20041;-71
2022/01/02 00:12:13;;;;;;;11.00;7.45;;;11.80;99.90;;;;;;5024593;28;20610;-71
2022/01/02 00:14:47;;;;;;;12.77;7.78;;;11.80;99.90;;;;;;5018414;28;20041;-70
2022/01/02 00:17:17;;;;;;;12.95;7.30;;;11.80;99.90;;;;;;5037108;28;20049;-70
2022/01/02 00:19:46;;;;;;;;;;;11.80;99.90;;;;;;5035924;28;20053;-71
2022/01/02 00:22:15;;;;;;;11.63;7.97;;;11.70;99.90;;;;;;5028930;28;19921;-71
2022/01/02 00:24:42;;;;;;;12.90;8.80;;;11.70;99.90;;;;;;5034407;28;20067;-71
2022/01/02 00:27:10;;;;;;;13.52;8.55;;;11.70;99.90;;;;;;5030211;28;20034;-69
2022/01/02 00:29:41;;;;;;;12.48;9.00;;;11.60;99.90;;;;;;5028581;28;20042;-70
2022/01/02 00:32:08;;;;;;;12.13;7.70;;;11.60;99.90;;;;;;5004981;28;20049;-70
2022/01/02 00:34:38;;;;;;;12.73;8.23;;;11.60;99.90;;;;;;5026731;28;20054;-70
2022/01/02 00:37:05;;;;;;;;;;;11.60;99.90;;;;;;5009286;28;20106;-70
2022/01/02 00:39:31;;;;;;;16.65;9.15;;;11.60;99.90;;;;;;5036823;28;20307;-70
2022/01/02 00:42:05;;;;;;;17.23;8.48;;;11.60;99.90;;;;;;5025725;28;20526;-70
2022/01/02 00:44:56;;;;;;;17.40;8.90;;;11.50;99.90;;;;;;5039280;28;20458;-70
2022/01/02 00:47:36;;;;;;;13.25;7.85;;;11.50;99.90;;;;;;5037754;28;20079;-70
2022/01/02 00:50:04;;;;;;;18.35;8.60;;;11.60;99.90;;;;;;5013267;28;20049;-70
2022/01/02 00:52:36;;;;;;;12.75;8.68;;;11.50;99.90;;;;;;5024963;28;20045;-70
2022/01/02 00:55:08;;;;;;;12.55;8.40;;;11.50;99.90;;;;;;5040189;28;20084;-70
2022/01/02 00:57:37;;;;;;;15.43;9.43;;;11.50;99.90;;;;;;5035564;28;20103;-69
2022/01/02 01:00:13;;;;;;;16.17;9.15;;;11.50;99.90;;;;;;5048206;28;20053;-70
2022/01/02 01:02:46;;;;;;;16.58;8.45;;;11.50;99.90;;;;;;5051466;28;20578;-70
2022/01/02 01:05:30;;;;;;;15.98;9.40;;;11.50;99.90;;;;;;5036661;28;20435;-70
2022/01/02 01:08:04;;;;;;;13.13;8.45;;;11.60;99.90;;;;;;5034022;28;20138;-70
2022/01/02 01:10:36;;;;;;;18.95;9.63;;;11.50;99.90;;;;;;5017892;28;20045;-70
2022/01/02 01:13:05;;;;;;;16.05;9.57;;;11.60;99.90;;;;;;5034070;28;20057;-70
2022/01/02 01:15:32;;;;;;;13.07;8.75;;;11.50;99.90;;;;;;5030651;28;20045;-70
2022/01/02 01:18:00;;;;;;;15.77;9.25;;;11.60;99.90;;;;;;5032420;28;20046;-70
2022/01/02 01:20:30;;;;;;;16.25;9.15;;;11.60;99.90;;;;;;5048677;28;20049;-70
2022/01/02 01:22:56;;;;;;;21.67;10.93;;;11.50;99.90;;;;;;5033343;28;20064;-70
2022/01/02 01:25:23;;;;;;;16.15;9.55;;;11.60;99.90;;;;;;5029645;28;20488;-70
2022/01/02 01:27:51;;;;;;;18.08;9.30;;;11.60;99.90;;;;;;5037747;28;20132;-71
2022/01/02 01:30:20;;;;;;;21.67;10.07;;;11.60;99.90;;;;;;5028521;28;20053;-70
2022/01/02 01:32:46;;;;;;;16.80;9.85;;;11.60;99.90;;;;;;5040828;28;20048;-71
2022/01/02 01:35:14;;;;;;;19.52;10.70;;;11.50;99.90;;;;;;5029066;28;20045;-70
2022/01/02 01:37:40;;;;;;;17.33;9.88;;;11.50;99.90;;;;;;5037113;28;20033;-71
2022/01/02 01:40:07;;;;;;;17.20;9.35;;;11.50;99.90;;;;;;5043414;28;20458;-70
2022/01/02 01:42:39;;;;;;;13.02;9.65;;;11.50;99.90;;;;;;5035830;28;20110;-71
2022/01/02 01:47:55;;;;;;;18.27;10.38;;;11.50;99.90;;;;;;5043198;28;20057;-70
2022/01/02 01:50:25;;;;;;;17.90;9.88;;;11.50;99.90;;;;;;5046774;28;20056;-71
2022/01/02 01:52:57;;;;;;;18.27;10.00;;;11.50;99.90;;;;;;5048620;28;20064;-70
2022/01/02 01:55:23;;;;;;;17.27;10.25;;;11.50;99.90;;;;;;5032171;28;20136;-70
2022/01/02 01:57:51;;;;;;;17.83;10.20;;;11.50;99.90;;;;;;5030223;28;20135;-70
2022/01/02 02:00:20;;;;;;;21.55;10.57;;;11.50;99.90;;;;;;5047375;28;20056;-70
2022/01/02 02:02:47;;;;;;;19.58;9.88;;;11.50;99.90;;;;;;5028599;28;20478;-70
2022/01/02 02:05:13;;;;;;;18.23;10.40;;;11.50;99.90;;;;;;5011831;28;20058;-70
2022/01/02 02:07:48;;;;;;;24.52;11.35;;;11.50;99.90;;;;;;5031153;28;20474;-70
2022/01/02 02:10:28;;;;;;;22.25;11.15;;;11.50;99.90;;;;;;5030540;28;20096;-70
2022/01/02 02:12:56;;;;;;;19.73;10.25;;;11.50;99.90;;;;;;5030819;28;20057;-70
2022/01/02 02:15:23;;;;;;;17.77;9.57;;;11.50;99.90;;;;;;5028927;28;20122;-70
2022/01/02 02:17:51;;;;;;;18.05;9.98;;;11.50;99.90;;;;;;5047543;28;20053;-70
2022/01/02 02:20:21;;;;;;;18.25;10.50;;;11.50;99.90;;;;;;5046799;28;20503;-70
2022/01/02 02:22:50;;;;;;;22.98;10.75;;;11.50;99.90;;;;;;5047713;28;20057;-70
2022/01/02 02:25:19;;;;;;;17.85;9.55;;;11.40;99.90;;;;;;5038803;28;20049;-70
2022/01/02 02:28:12;;;;;;;20.63;10.43;;;11.50;99.90;;;;;;5045694;28;20061;-70
2022/01/02 02:30:41;;;;;;;17.67;10.02;;;11.40;99.90;;;;;;5046193;28;20056;-70
2022/01/02 02:33:08;;;;;;;17.90;10.50;;;11.50;99.90;;;;;;5027938;28;20041;-70
2022/01/02 02:35:37;;;;;;;19.92;10.13;;;11.50;99.90;;;;;;5047950;28;20145;-70
2022/01/02 02:38:08;;;;;;;22.02;10.18;;;11.50;99.90;;;;;;5045593;28;20480;-70
2022/01/02 02:40:35;;;;;;;22.00;11.65;;;11.50;99.90;;;;;;5047166;28;20145;-70
2022/01/02 02:43:06;;;;;;;23.65;10.52;;;11.50;99.90;;;;;;5046499;28;20670;-70
2022/01/02 02:51:20;;;;;;;21.52;10.40;;;11.60;99.90;;;;;;5046898;28;20782;-71
2022/01/02 02:53:48;;;;;;;17.95;10.75;;;11.60;99.90;;;;;;5048442;28;20049;-70
2022/01/02 02:56:22;;;;;;;18.63;10.15;;;11.60;99.90;;;;;;5046113;28;20500;-70
2022/01/02 02:58:50;;;;;;;20.35;10.18;;;11.50;99.90;;;;;;5029992;28;20056;-71
2022/01/02 03:01:19;;;;;;;20.35;11.63;;;11.60;99.90;;;;;;5023967;28;20130;-71
2022/01/02 03:03:45;;;;;;;21.23;11.18;;;11.50;99.90;;;;;;5026975;28;20045;-70
2022/01/02 03:06:13;;;;;;;20.58;10.95;;;11.50;99.90;;;;;;5025758;28;20041;-71
2022/01/02 03:08:40;;;;;;;23.50;11.90;;;11.50;99.90;;;;;;5027709;28;20049;-70
2022/01/02 03:11:09;;;;;;;19.60;10.38;;;11.50;99.90;;;;;;5026095;28;20404;-71
2022/01/02 03:13:35;;;;;;;18.67;12.30;;;11.50;99.90;;;;;;5010948;28;20412;-71
2022/01/02 03:16:01;;;;;;;21.13;11.95;;;11.50;99.90;;;;;;5026351;28;20076;-70
2022/01/02 03:18:27;;;;;;;22.08;11.65;;;11.50;99.90;;;;;;5010513;28;20088;-70
2022/01/02 03:20:53;;;;;;;24.92;12.57;;;11.50;99.90;;;;;;5010248;28;20057;-70
2022/01/02 03:23:18;;;;;;;23.02;11.32;;;11.50;99.90;;;;;;4993841;28;20748;-70
2022/01/02 03:25:44;;;;;;;19.98;11.65;;;11.50;99.90;;;;;;5023861;28;20487;-70
2022/01/02 03:28:13;;;;;;;24.00;11.63;;;11.40;99.90;;;;;;5026397;28;20037;-70
2022/01/02 03:30:41;;;;;;;22.33;11.77;;;11.50;99.90;;;;;;5010046;28;20100;-70
2022/01/02 03:33:07;;;;;;;20.58;10.85;;;11.40;99.90;;;;;;4999732;28;20080;-70
2022/01/02 03:35:32;;;;;;;19.65;10.68;;;11.40;99.90;;;;;;5045839;28;20060;-70
2022/01/02 03:38:03;;;;;;;17.90;10.48;;;11.50;99.90;;;;;;5046306;28;20061;-70
2022/01/02 03:40:30;;;;;;;16.38;10.55;;;11.50;99.90;;;;;;5034678;28;20060;-70
2022/01/02 03:42:56;;;;;;;20.02;9.75;;;11.50;99.90;;;;;;5028520;28;20543;-70
2022/01/02 03:45:22;;;;;;;19.05;10.45;;;11.50;99.90;;;;;;5047775;28;20053;-70
2022/01/02 03:47:49;;;;;;;17.70;9.80;;;11.50;99.90;;;;;;5047008;28;20056;-70
2022/01/02 03:50:15;;;;;;;21.42;10.65;;;11.50;99.90;;;;;;5044951;28;20049;-70
2022/01/02 03:52:41;;;;;;;17.17;10.10;;;11.50;99.90;;;;;;5029944;28;20071;-70
2022/01/02 03:55:08;;;;;;;22.83;11.20;;;11.50;99.90;;;;;;5039078;28;20058;-70
2022/01/02 03:57:34;;;;;;;20.58;9.98;;;11.50;99.90;;;;;;5039590;28;20569;-70
2022/01/02 04:00:00;;;;;;;17.98;10.15;;;11.50;99.90;;;;;;5028918;28;20041;-70
2022/01/02 04:02:26;;;;;;;19.08;9.93;;;11.50;99.90;;;;;;5044289;28;20052;-70
2022/01/02 04:04:52;;;;;;;16.35;9.00;;;11.50;99.90;;;;;;5029492;28;20049;-70
2022/01/02 04:07:17;;;;;;;20.15;9.40;;;11.60;99.90;;;;;;5044864;28;20228;-70
2022/01/02 04:09:43;;;;;;;19.52;9.48;;;11.60;99.90;;;;;;5029444;28;20075;-70
2022/01/02 04:12:09;;;;;;;19.88;9.80;;;11.60;99.90;;;;;;5045280;28;20049;-70
2022/01/02 04:14:35;;;;;;;27.48;10.25;;;11.60;99.90;;;;;;5029112;28;20084;-70
2022/01/02 04:17:01;;;;;;;19.75;10.15;;;11.60;99.90;;;;;;5044608;28;20681;-69
2022/01/02 04:19:27;;;;;;;20.52;9.48;;;11.50;99.90;;;;;;5049733;28;20057;-70
2022/01/02 04:21:52;;;;;;;26.30;10.45;;;11.60;99.90;;;;;;5033539;28;20072;-70
2022/01/02 04:24:18;;;;;;;19.70;9.02;;;11.60;99.90;;;;;;5016404;28;20717;-70
2022/01/02 04:26:44;;;;;;;20.20;9.00;;;11.60;99.90;;;;;;5026784;28;20099;-70
2022/01/02 04:29:10;;;;;;;21.40;9.05;;;11.60;99.90;;;;;;5028882;28;20048;-69
2022/01/02 04:31:36;;;;;;;20.88;9.98;;;11.60;99.90;;;;;;5037254;28;20063;-71
2022/01/02 04:34:02;;;;;;;18.63;9.70;;;11.60;99.90;;;;;;5050053;28;20052;-70
2022/01/02 04:36:27;;;;;;;17.65;8.95;;;11.60;99.90;;;;;;5049681;28;20412;-70
2022/01/02 04:38:53;;;;;;;20.23;8.90;;;11.60;99.90;;;;;;5049372;28;20080;-70
2022/01/02 04:41:22;;;;;;;23.50;8.80;;;11.60;99.90;;;;;;5032057;28;20057;-70
2022/01/02 04:43:48;;;;;;;19.85;9.02;;;11.60;99.90;;;;;;5033052;28;20053;-70
2022/01/02 04:46:14;;;;;;;21.17;9.00;;;11.60;99.90;;;;;;5016204;28;20114;-70
2022/01/02 04:48:40;;;;;;;19.77;8.65;;;11.70;99.90;;;;;;5015531;28;20132;-70
2022/01/02 04:51:06;;;;;;;21.80;8.93;;;11.70;99.90;;;;;;5015634;28;20555;-70
2022/01/02 04:53:32;;;;;;;20.90;8.98;;;11.70;99.90;;;;;;5049260;28;20081;-70
2022/01/02 04:56:03;;;;;;;15.05;8.27;;;11.70;99.90;;;;;;5016298;28;20052;-70
2022/01/02 04:58:31;;;;;;;18.20;8.65;;;11.70;99.90;;;;;;5030591;28;20085;-70
2022/01/02 05:00:57;;;;;;;22.23;8.65;;;11.70;99.90;;;;;;5032057;28;20073;-70
2022/01/02 05:03:23;;;;;;;16.17;7.82;;;11.70;99.90;;;;;;5032284;28;20087;-70
2022/01/02 05:05:49;;;;;;;14.18;7.65;;;11.70;99.90;;;;;;5049382;28;20060;-70
2022/01/02 05:08:15;;;;;;;16.88;7.40;;;11.80;99.90;;;;;;5048531;28;20049;-70
2022/01/02 05:10:41;;;;;;;20.77;7.68;;;11.80;99.90;;;;;;5049319;28;20072;-70
2022/01/02 05:13:06;;;;;;;17.73;7.18;;;11.80;99.90;;;;;;5031070;28;20699;-70
2022/01/02 05:15:32;;;;;;;15.43;7.18;;;11.80;99.90;;;;;;5043849;28;20145;-70
2022/01/02 05:18:01;;;;;;;18.35;7.47;;;11.80;99.90;;;;;;5028964;28;20104;-70
2022/01/02 05:20:27;;;;;;;19.52;7.80;;;11.80;99.90;;;;;;5012564;28;20057;-70
2022/01/02 05:22:52;;;;;;;21.20;7.57;;;11.90;99.90;;;;;;5030458;28;20130;-70
2022/01/02 05:25:18;;;;;;;16.50;7.60;;;11.90;99.90;;;;;;5028396;28;20045;-71
2022/01/02 05:27:44;;;;;;;17.08;7.10;;;11.90;99.90;;;;;;5029638;28;20552;-70
2022/01/02 05:30:10;;;;;;;20.98;7.65;;;11.90;99.90;;;;;;5012876;28;20049;-71
2022/01/02 05:32:36;;;;;;;15.40;6.82;;;11.80;99.90;;;;;;5046094;28;20054;-71
2022/01/02 05:35:02;;;;;;;19.95;7.35;;;11.80;99.90;;;;;;5047621;28;20314;-70
2022/01/02 05:37:31;;;;;;;22.25;7.78;;;11.80;99.90;;;;;;5033109;28;20411;-70
2022/01/02 05:39:57;;;;;;;17.17;7.28;;;11.90;99.90;;;;;;5031521;28;20056;-72
2022/01/02 05:42:26;;;;;;;19.25;7.28;;;11.80;99.90;;;;;;5032223;28;20057;-71
2022/01/02 05:44:52;;;;;;;13.65;6.57;;;11.80;99.90;;;;;;5049033;28;20056;-71
2022/01/02 05:47:18;;;;;;;18.95;7.32;;;11.90;99.90;;;;;;5031196;28;20052;-71
2022/01/02 05:49:43;;;;;;;19.23;6.65;;;11.90;99.90;;;;;;5031416;28;20049;-70
2022/01/02 05:52:09;;;;;;;22.88;7.70;;;11.90;99.90;;;;;;5047632;28;20443;-70
2022/01/02 05:54:35;;;;;;;18.58;6.78;;;11.90;99.90;;;;;;5031569;28;20056;-71
2022/01/02 05:57:01;;;;;;;18.00;6.50;;;12.00;99.90;;;;;;5047532;28;20048;-70
2022/01/02 05:59:27;;;;;;;23.05;6.30;;;12.00;99.90;;;;;;5031913;28;20064;-72
2022/01/02 06:01:56;;;;;;;20.63;6.63;;;12.10;99.90;;;;;;5011541;28;20556;-73
2022/01/02 06:04:22;;;;;;;19.05;6.70;;;12.00;99.90;;;;;;5028622;28;20075;-72
2022/01/02 06:06:48;;;;;;;16.45;6.05;;;12.00;99.90;;;;;;5029076;28;20716;-72
2022/01/02 06:09:14;;;;;;;18.00;5.82;;;12.10;99.90;;;;;;5026941;28;20056;-72
2022/01/02 06:11:40;;;;;;;17.83;6.20;;;12.10;99.90;;;;;;5028268;28;20052;-70
2022/01/02 06:14:05;;;;;;;17.63;6.40;;;12.10;99.90;;;;;;5010710;28;20038;-70
2022/01/02 06:16:32;;;;;;;14.85;6.07;;;12.20;99.90;;;;;;5011393;28;20055;-70
2022/01/02 06:18:57;;;;;;;17.70;4.78;;;12.20;99.90;;;;;;5028053;28;20188;-71
2022/01/02 06:21:23;;;;;;;15.15;4.88;;;12.20;99.90;;;;;;5010814;28;20140;-71
2022/01/02 06:23:49;;;;;;;13.45;4.60;;;12.20;99.90;;;;;;5011409;28;20051;-71
2022/01/02 06:26:15;;;;;;;13.20;4.30;;;12.30;99.90;;;;;;5010503;28;20052;-71
2022/01/02 06:28:40;;;;;;;15.82;4.88;;;12.30;99.90;;;;;;5011017;28;20489;-73
2022/01/02 06:31:08;;;;;;;12.93;4.97;;;12.30;99.90;;;;;;5026741;28;20614;-73
2022/01/02 06:33:34;;;;;;;16.23;4.70;;;12.30;99.90;;;;;;5002076;28;20144;-73
2022/01/02 06:36:03;;;;;;;12.50;4.28;;;12.30;99.90;;;;;;5047580;28;20045;-70
2022/01/02 06:38:29;;;;;;;15.27;5.10;;;12.40;99.90;;;;;;5047339;28;20057;-70
2022/01/02 06:40:55;;;;;;;13.20;4.32;;;12.40;99.90;;;;;;5029466;28;20389;-71
2022/01/02 06:43:21;;;;;;;11.90;4.72;;;12.40;99.90;;;;;;5030236;28;20048;-71
2022/01/02 06:45:47;;;;;;;14.68;4.03;;;12.40;99.90;;;;;;5048111;28;20052;-70
2022/01/02 06:48:13;;;;;;;15.38;4.70;;;12.40;99.90;;;;;;5047027;28;20511;-71
2022/01/02 06:50:39;;;;;;;11.70;4.15;;;12.40;99.90;;;;;;5030426;28;20060;-71
2022/01/02 06:53:06;;;;;;;13.32;3.95;;;12.40;99.90;;;;;;5046696;28;20098;-70
2022/01/02 06:55:31;;;;;;;12.40;4.18;;;12.40;99.90;;;;;;5047099;28;20053;-70
2022/01/02 06:57:57;;;;;;;14.05;4.45;;;12.50;99.90;;;;;;5030553;28;20059;-70
2022/01/02 07:00:26;;;;;;;14.63;5.05;;;12.40;99.90;;;;;;5029412;28;20135;-71
2022/01/02 07:02:52;;;;;;;13.85;5.20;;;12.40;99.90;;;;;;5025623;28;20136;-70
2022/01/02 07:05:18;;;;;;;17.35;5.25;;;12.40;99.90;;;;;;5027408;28;20583;-71
2022/01/02 07:07:46;;;;;;;12.00;4.85;;;12.40;99.90;;;;;;5010928;28;20408;-71
2022/01/02 07:10:13;;;;;;;14.38;4.72;;;12.50;99.90;;;;;;5043379;28;20393;-70
2022/01/02 07:12:39;;;;;;;10.38;4.78;;;12.40;99.90;;;;;;5044335;28;20488;-70
2022/01/02 07:15:07;;;;;;;14.07;5.97;;;12.40;99.90;;;;;;5043654;28;20554;-70
2022/01/02 07:17:34;;;;;;;10.40;4.70;;;12.40;99.90;;;;;;5029265;28;20164;-70
2022/01/02 07:19:59;;;;;;;13.00;5.05;;;12.30;99.90;;;;;;5026612;28;20060;-70
2022/01/02 07:22:25;;;;;;;10.77;4.97;;;12.30;99.90;;;;;;5027754;28;20053;-70
2022/01/02 07:24:51;;;;;;;14.60;5.63;;;12.30;99.90;;;;;;5020335;28;20052;-70
2022/01/02 07:27:18;;;;;;;12.25;5.97;;;12.20;99.90;;;;;;5018501;28;20088;-71
2022/01/02 07:29:45;;;;;;;12.52;5.43;;;12.20;99.90;;;;;;5027096;28;20052;-71
2022/01/02 07:32:12;;;;;;;8.60;5.30;;;12.20;99.90;;;;;;5041811;28;20060;-71
2022/01/02 07:34:37;;;;;;;10.23;5.15;;;12.20;99.90;;;;;;5059227;28;20568;-71
2022/01/02 07:37:03;;;;;;;13.15;5.93;;;12.20;99.90;;;;;;5045827;28;20053;-70
2022/01/02 07:39:29;;;;;;;12.60;5.63;;;12.20;99.90;;;;;;5045999;28;20106;-71
2022/01/02 07:41:55;;;;;;;12.40;5.70;;;12.20;99.90;;;;;;5045825;28;20056;-70
2022/01/02 07:44:21;;;;;;;14.73;5.68;;;12.20;99.90;;;;;;5026375;28;20150;-70
2022/01/02 07:46:47;;;;;;;12.05;5.47;;;12.20;99.90;;;;;;5026250;28;20056;-71
2022/01/02 07:49:13;;;;;;;14.98;5.60;;;12.10;99.90;;;;;;5036360;28;20403;-70
2022/01/02 07:51:38;;;;;;;11.05;5.13;;;12.10;99.90;;;;;;5045710;28;20132;-70
2022/01/02 07:54:07;;;;;;;10.15;5.63;;;12.10;99.90;;;;;;5012684;28;20373;-70
2022/01/02 07:56:33;;;;;;;13.02;5.72;;;12.10;99.90;;;;;;5046044;28;20037;-70
2022/01/02 07:58:59;;;;;;;14.15;6.00;;;12.10;99.90;;;;;;5036660;28;20613;-70
2022/01/02 08:01:26;;;;;;;13.07;5.32;;;12.10;99.90;;;;;;5025205;28;20080;-71
2022/01/02 08:03:52;;;;;;;14.63;5.72;;;12.00;99.90;;;;;;5009306;28;20392;-70
2022/01/02 08:06:18;;;;;;;14.35;6.10;;;12.00;99.90;;;;;;5025354;28;20076;-70
2022/01/02 08:08:45;;;;;;;13.60;6.40;;;12.00;99.90;;;;;;5025539;28;20050;-70
2022/01/02 08:11:12;;;;;;;12.13;5.70;;;12.00;99.90;;;;;;5025161;28;20048;-71
2022/01/02 08:13:37;;;;;;;14.07;6.10;;;12.00;99.90;;;;;;5009651;28;20049;-71
2022/01/02 08:16:03;;;;;;;11.60;6.00;;;11.90;99.90;;;;;;5025281;28;20133;-71
2022/01/02 08:18:29;;;;;;;13.07;6.05;;;12.00;99.90;;;;;;5025689;28;20129;-70
2022/01/02 08:20:57;;;;;;;12.10;5.95;;;12.00;99.90;;;;;;5025311;28;20054;-70
2022/01/02 08:23:23;;;;;;;12.20;6.20;;;11.90;99.90;;;;;;5025625;28;20496;-71
2022/01/02 08:25:49;;;;;;;13.15;5.97;;;11.90;99.90;;;;;;5025604;28;20049;-70
2022/01/02 08:28:15;;;;;;;14.05;5.70;;;11.90;99.90;;;;;;5042062;28;20081;-70
2022/01/02 08:30:43;;;;;;;13.65;5.93;;;11.90;99.90;;;;;;5038277;28;20128;-70
2022/01/02 08:33:10;;;;;;;12.75;6.05;;;11.90;99.90;;;;;;5028397;28;20488;-70
2022/01/02 08:35:37;;;;;;;12.77;6.32;;;11.90;99.90;;;;;;5044028;28;20060;-70
2022/01/02 08:38:03;;;;;;;11.32;5.93;;;11.90;99.90;;;;;;5046466;28;20041;-70
2022/01/02 08:40:29;;;;;;;13.70;6.70;;;11.90;99.90;;;;;;5028148;28;20550;-71
2022/01/02 08:42:55;;;;;;;12.75;5.88;;;11.90;99.90;;;;;;5045393;28;20049;-70
2022/01/02 08:45:21;;;;;;;11.75;5.63;;;11.90;99.90;;;;;;5046442;28;20407;-71
2022/01/02 08:47:47;;;;;;;8.02;5.72;;;11.80;99.90;;;;;;5043725;28;20080;-70
2022/01/02 08:50:13;;;;;;;8.43;4.53;;;11.90;99.90;;;;;;5027902;28;20593;-70
2022/01/02 08:52:39;;;;;;;11.98;5.97;;;11.80;99.90;;;;;;5029077;28;20092;-69
2022/01/02 08:55:05;;;;;;;11.60;5.93;;;11.80;99.90;;;;;;5044986;28;20051;-70
2022/01/02 08:57:31;;;;;;;11.98;5.70;;;11.80;99.90;;;;;;5028514;28;20049;-70
2022/01/02 08:59:57;;;;;;;12.45;5.47;;;11.80;99.90;;;;;;5040724;28;20128;-70
2022/01/02 09:02:23;;;;;;;11.82;6.57;;;11.80;99.90;;;;;;5024799;28;20053;-70
2022/01/02 09:04:49;;;;;;;15.00;6.10;;;11.70;99.90;;;;;;5029137;28;20057;-70
2022/01/02 09:07:14;;;;;;;11.75;5.25;;;11.70;99.90;;;;;;5011986;28;20042;-70
2022/01/02 09:09:40;;;;;;;11.63;6.03;;;11.80;99.90;;;;;;5029651;28;20114;-71
2022/01/02 09:12:07;;;;;;;10.15;5.43;;;11.70;99.90;;;;;;5030440;28;20511;-70
2022/01/02 09:14:33;;;;;;;12.52;6.35;;;11.70;99.90;;;;;;5013340;28;20049;-71
2022/01/02 09:16:59;;;;;;;13.10;6.70;;;11.70;99.90;;;;;;5013202;28;20057;-71
2022/01/02 09:19:25;;;;;;;14.50;5.50;;;11.70;99.90;;;;;;5029462;28;20100;-70
2022/01/02 09:21:51;;;;;;;10.27;5.22;;;11.70;99.90;;;;;;5028903;28;20124;-71
2022/01/02 09:24:19;;;;;;;11.23;5.40;;;11.80;99.90;;;;;;5027902;28;20286;-70
2022/01/02 09:26:45;;;;;;;14.20;5.57;;;11.80;99.90;;;;;;5029354;28;20114;-70
2022/01/02 09:29:11;;;;;;;11.55;5.88;;;11.80;99.90;;;;;;5027803;28;20136;-71
2022/01/02 09:31:37;;;;;;;10.73;5.18;;;11.90;99.90;;;;;;5033522;28;20057;-71
2022/01/02 09:34:03;;;;;;;9.40;5.20;;;11.90;99.90;;;;;;5022685;28;20113;-71
2022/01/02 09:36:31;;;;;;;12.98;6.03;;;12.00;99.90;;;;;;5047888;28;20049;-70
2022/01/02 09:38:57;;;;;;;8.55;6.18;;;12.00;99.90;;;;;;5031371;28;20057;-70
2022/01/02 09:41:23;;;;;;;11.00;5.30;;;12.10;99.90;;;;;;5047442;28;20056;-70
2022/01/02 09:43:50;;;;;;;10.93;5.35;;;12.10;99.90;;;;;;5031677;28;20057;-71
2022/01/02 09:46:24;;;;;;;9.40;5.40;;;12.20;99.90;;;;;;5031187;28;20045;-71
2022/01/02 09:48:51;;;;;;;13.82;5.47;;;12.20;99.90;;;;;;5049457;28;20449;-71
2022/01/02 09:51:22;;;;;;;8.70;5.80;;;12.30;99.90;;;;;;5047318;28;20057;-71
2022/01/02 09:53:47;;;;;;;;;;;12.30;99.90;;;;;;5042797;28;20416;-71
2022/01/02 09:56:14;;;;;;;9.70;5.55;;;12.30;99.90;;;;;;5027248;28;19925;-70
2022/01/02 09:58:43;;;;;;;10.65;5.93;;;12.30;99.90;;;;;;5046748;28;20057;-71
2022/01/02 10:01:23;;;;;;;9.50;5.75;;;12.40;99.90;;;;;;5047230;28;20411;-70
2022/01/02 10:03:54;;;;;;;9.57;5.82;;;12.40;99.90;;;;;;5034379;28;20126;-71
2022/01/02 10:06:36;;;;;;;10.15;6.18;;;12.40;99.90;;;;;;5031296;28;20064;-72
2022/01/02 10:09:03;;;;;;;8.77;5.70;;;12.40;99.90;;;;;;5028589;28;20697;-71
2022/01/02 10:11:33;;;;;;;9.95;5.93;;;12.40;99.90;;;;;;5060264;28;20048;-72
2022/01/02 10:14:04;;;;;;;12.18;5.85;;;12.40;99.90;;;;;;5043421;28;20041;-72
2022/01/02 10:16:38;;;;;;;10.05;5.93;;;12.30;99.90;;;;;;5043054;28;20045;-73
2022/01/02 10:19:29;;;;;;;9.00;5.75;;;12.40;99.90;;;;;;5041199;28;20053;-72
2022/01/02 10:22:00;;;;;;;10.85;6.20;;;12.30;99.90;;;;;;5043798;28;20131;-72
2022/01/02 10:24:32;;;;;;;16.60;7.20;;;12.30;99.90;;;;;;5045538;28;20056;-72
2022/01/02 10:27:19;;;;;;;11.52;6.05;;;12.30;99.90;;;;;;5044520;28;20092;-73
2022/01/02 10:29:58;;;;;;;9.40;5.47;;;12.30;99.90;;;;;;5044634;28;20120;-72
2022/01/02 10:32:33;;;;;;;9.50;6.22;;;12.30;99.90;;;;;;5036933;28;20579;-72
2022/01/02 10:35:14;;;;;;;14.20;6.50;;;12.30;99.90;;;;;;5037045;28;20037;-73
2022/01/02 10:38:03;;;;;;;10.38;6.80;;;12.30;99.90;;;;;;5037431;28;20045;-71
2022/01/02 10:40:40;;;;;;;11.60;6.90;;;12.30;99.90;;;;;;5004007;28;20045;-71
2022/01/02 10:43:09;;;;;;;9.85;6.70;;;12.30;99.90;;;;;;5036422;28;20129;-71
2022/01/02 10:45:38;;;;;;;12.23;6.88;;;12.40;99.90;;;;;;5024243;28;20049;-71
2022/01/02 10:48:10;;;;;;;12.90;6.60;;;12.40;99.90;;;;;;5038667;28;20049;-73
2022/01/02 10:50:38;;;;;;;11.05;7.10;;;12.40;99.90;;;;;;5037714;28;20387;-72
2022/01/02 10:53:17;;;;;;;10.35;5.90;;;12.50;99.90;;;;;;5020690;28;20500;-71
2022/01/02 10:55:45;;;;;;;12.52;6.53;;;12.50;99.90;;;;;;5035001;28;20054;-72
2022/01/02 10:58:12;;;;;;;12.63;6.78;;;12.50;99.90;;;;;;5046169;28;20049;-72
2022/01/02 11:00:38;;;;;;;9.23;5.88;;;12.50;99.90;;;;;;5036004;28;20068;-72
2022/01/02 11:03:06;;;;;;;13.43;6.22;;;12.50;99.90;;;;;;5046999;28;20530;-71
2022/01/02 11:05:36;;;;;;;12.93;6.10;;;12.50;99.90;;;;;;5037206;28;20503;-72
2022/01/02 11:08:03;;;;;;;10.23;5.93;;;12.50;99.90;;;;;;5027795;28;20045;-71
2022/01/02 11:10:35;;;;;;;12.75;6.30;;;12.50;99.90;;;;;;5051057;28;20487;-70
2022/01/02 11:13:03;;;;;;;10.63;6.25;;;12.50;99.90;;;;;;5025750;28;20049;-72
2022/01/02 11:15:29;;;;;;;11.07;6.05;;;12.50;99.90;;;;;;5045455;28;20181;-71
2022/01/02 11:17:56;;;;;;;16.75;6.63;;;12.50;99.90;;;;;;5057073;28;20155;-71
2022/01/02 11:20:33;;;;;;;12.98;6.22;;;12.50;99.90;;;;;;5029368;28;20072;-72
2022/01/02 11:23:00;;;;;;;9.43;6.43;;;12.40;99.90;;;;;;5028587;28;20052;-72
2022/01/02 11:25:50;;;;;;;11.25;6.55;;;12.40;99.90;;;;;;5041228;28;20109;-73
2022/01/02 11:28:35;;;;;;;12.32;6.88;;;12.40;99.90;;;;;;5043670;28;20049;-71
2022/01/02 11:31:03;;;;;;;14.73;6.35;;;12.40;99.90;;;;;;5031049;28;20512;-71
2022/01/02 11:33:32;;;;;;;9.75;6.40;;;12.40;99.90;;;;;;5025799;28;20061;-71
2022/01/02 11:36:00;;;;;;;11.30;6.80;;;12.40;99.90;;;;;;5051786;28;20044;-71
2022/01/02 11:38:42;;;;;;;13.48;5.93;;;12.40;99.90;;;;;;5029295;28;20054;-71
2022/01/02 11:41:14;;;;;;;12.00;6.10;;;12.40;99.90;;;;;;5041932;28;20062;-71
2022/01/02 11:43:46;;;;;;;11.52;6.38;;;12.40;99.90;;;;;;5034664;28;20065;-71
2022/01/02 11:46:16;;;;;;;9.85;5.43;;;12.40;99.90;;;;;;5025244;28;20531;-72
2022/01/02 11:48:42;;;;;;;10.50;6.20;;;12.40;99.90;;;;;;5035358;28;20489;-72
2022/01/02 11:51:08;;;;;;;12.00;5.95;;;12.40;99.90;;;;;;5029174;28;20103;-72
2022/01/02 11:53:35;;;;;;;8.85;5.88;;;12.40;99.90;;;;;;5039785;28;20514;-74
2022/01/02 11:56:02;;;;;;;10.88;6.13;;;12.40;99.90;;;;;;5034686;28;20094;-72
2022/01/02 11:58:47;;;;;;;9.95;6.22;;;12.30;99.90;;;;;;5060134;28;20515;-72
2022/01/02 12:01:46;;;;;;;15.45;6.25;;;12.30;99.90;;;;;;5034348;28;20277;-73
2022/01/02 12:04:12;;;;;;;15.70;5.68;;;12.30;99.90;;;;;;5043863;28;20132;-72
2022/01/02 12:06:38;;;;;;;12.07;4.90;;;12.30;99.90;;;;;;5036396;28;20667;-73
2022/01/02 12:09:37;;;;;;;8.65;3.67;;;12.40;99.90;;;;;;5051718;28;20197;-74
2022/01/02 12:12:06;;;;;;;10.85;4.43;;;12.40;99.90;;;;;;5030026;28;20045;-72
2022/01/02 12:14:44;;;;;;;13.48;4.13;;;12.40;99.90;;;;;;5029580;28;20053;-71
2022/01/02 12:17:12;;;;;;;10.52;3.40;;;12.40;99.90;;;;;;5029890;28;20549;-73
2022/01/02 12:20:04;;;;;;;18.17;4.00;;;12.40;99.90;;;;;;5013285;28;20754;-73
2022/01/02 12:22:48;;;;;;;10.35;3.70;;;12.40;99.90;;;;;;5024133;28;20057;-72
2022/01/02 12:25:17;;;;;;;10.35;2.60;;;12.30;99.90;;;;;;5008188;28;20046;-73
2022/01/02 12:27:49;;;;;;;11.13;2.90;;;12.30;99.90;;;;;;5043078;28;20492;-71
2022/01/02 12:30:16;;;;;;;9.32;3.15;;;12.40;99.90;;;;;;5043851;28;20041;-72
2022/01/02 12:32:47;;;;;;;12.40;2.88;;;12.30;99.90;;;;;;5034996;28;20620;-72
2022/01/02 12:35:13;;;;;;;7.22;2.53;;;12.30;99.90;;;;;;5007250;28;20115;-75
2022/01/02 12:37:40;;;;;;;14.50;2.92;;;12.30;99.90;;;;;;5008354;28;20049;-72
2022/01/02 12:40:14;;;;;;;12.70;3.50;;;12.30;99.90;;;;;;5006382;28;20053;-75
2022/01/02 12:42:39;;;;;;;11.20;2.90;;;12.30;99.90;;;;;;5042148;28;20057;-72
2022/01/02 12:45:06;;;;;;;10.73;3.45;;;12.30;99.90;;;;;;5020657;28;20147;-73
2022/01/02 12:47:32;;;;;;;10.63;3.00;;;12.30;99.90;;;;;;5030383;28;20187;-71
2022/01/02 12:49:58;;;;;;;10.60;2.63;;;12.30;99.90;;;;;;5039701;28;20053;-73
2022/01/02 12:52:25;;;;;;;10.43;2.67;;;12.30;99.90;;;;;;5011776;28;20848;-72